Check out our new PWSWeather beta!
PWSweather.com
Personal Weather Stations
Station Observations
METEOC500
Santo Antonio, FunchalPT 2020

Santo AntonioFunchalPT 2020

Lat: 32.678227, Lon: -16.945054

Elevation: 1669.94751

Station Type: WH Series

High Low Average
Temperature 82.0°F27.8°C 63.9°F17.7°C 74.1°F23.4°C
Dew Point 65.7°F18.7°C 36.9°F2.7°C 53.1°F11.7°C
Winds 8.7 mph 14.0 kmh Calm Calm 3.0 mph WSW4.8 kmh WSW
Wind Gusts 12.5 mph20.1 kmh 2.5 mph4.0 kmh 8.0 mph12.9 kmh
Humidity 79% 26% 49%
Pressure 30.09 in1019.0 mb 30.00 in1015.9 mb -
Precipitation 0.00 in0.0 mm - -
Hour Temp Dew Point Humidity Winds Wind Gusts Pressure Precip Precip Rate Daily Precip Total
12:01 AM 71.6°F22.0°C 50.4°F10.2°C 47% 4.0 mph NNW6.4 kmh NNW 7.6 mph12.2 kmh 30.05 in1017.6 mb 0.00 in0.0 mm 0.00 in0.0 mm 0.00 in0.0 mm
12:16 AM 71.1°F21.7°C 52.0°F11.1°C 51% 4.0 mph N6.4 kmh N 7.6 mph12.2 kmh 30.05 in1017.6 mb 0.00 in0.0 mm 0.00 in0.0 mm 0.00 in0.0 mm
12:31 AM 71.1°F21.7°C 51.4°F10.8°C 50% 3.4 mph NW5.5 kmh NW 7.6 mph12.2 kmh 30.04 in1017.3 mb 0.00 in0.0 mm 0.00 in0.0 mm 0.00 in0.0 mm
12:46 AM 71.1°F21.7°C 49.8°F9.9°C 47% 4.5 mph NW7.2 kmh NW 10.1 mph16.3 kmh 30.04 in1017.3 mb 0.00 in0.0 mm 0.00 in0.0 mm 0.00 in0.0 mm
01:01 AM 70.9°F21.6°C 47.3°F8.5°C 43% 4.7 mph NW7.6 kmh NW 10.1 mph16.3 kmh 30.04 in1017.3 mb 0.00 in0.0 mm 0.00 in0.0 mm 0.00 in0.0 mm
01:16 AM 71.4°F21.9°C 44.4°F6.9°C 38% 6.0 mph NNW9.7 kmh NNW 10.1 mph16.3 kmh 30.03 in1016.9 mb 0.00 in0.0 mm 0.00 in0.0 mm 0.00 in0.0 mm
01:31 AM 71.8°F22.1°C 44.1°F6.7°C 37% 3.4 mph NNW5.5 kmh NNW 7.6 mph12.2 kmh 30.03 in1016.9 mb 0.00 in0.0 mm 0.00 in0.0 mm 0.00 in0.0 mm
01:46 AM 71.4°F21.9°C 43.2°F6.2°C 36% 5.4 mph NNW8.7 kmh NNW 12.5 mph20.1 kmh 30.02 in1016.6 mb 0.00 in0.0 mm 0.00 in0.0 mm 0.00 in0.0 mm
02:01 AM 71.4°F21.9°C 37.6°F3.1°C 29% 4.9 mph N7.9 kmh N 12.5 mph20.1 kmh 30.02 in1016.6 mb 0.00 in0.0 mm 0.00 in0.0 mm 0.00 in0.0 mm
02:16 AM 72.0°F22.2°C 37.9°F3.3°C 29% 6.3 mph NNW10.1 kmh NNW 10.1 mph16.3 kmh 30.01 in1016.3 mb 0.00 in0.0 mm 0.00 in0.0 mm 0.00 in0.0 mm
02:31 AM 72.5°F22.5°C 41.0°F5.0°C 32% 4.9 mph NNW7.9 kmh NNW 10.1 mph16.3 kmh 30.01 in1016.3 mb 0.00 in0.0 mm 0.00 in0.0 mm 0.00 in0.0 mm
02:46 AM 72.9°F22.7°C 39.6°F4.2°C 30% 5.6 mph NW9.0 kmh NW 10.1 mph16.3 kmh 30.00 in1015.9 mb 0.00 in0.0 mm 0.00 in0.0 mm 0.00 in0.0 mm
03:01 AM 73.6°F23.1°C 37.6°F3.1°C 27% 6.0 mph N9.7 kmh N 12.5 mph20.1 kmh 30.01 in1016.3 mb 0.00 in0.0 mm 0.00 in0.0 mm 0.00 in0.0 mm
03:16 AM 74.1°F23.4°C 37.0°F2.8°C 26% 5.6 mph NNW9.0 kmh NNW 10.1 mph16.3 kmh 30.01 in1016.3 mb 0.00 in0.0 mm 0.00 in0.0 mm 0.00 in0.0 mm
03:31 AM 73.0°F22.8°C 41.4°F5.2°C 32% 7.2 mph NNW11.6 kmh NNW 10.1 mph16.3 kmh 30.01 in1016.3 mb 0.00 in0.0 mm 0.00 in0.0 mm 0.00 in0.0 mm
03:46 AM 72.1°F22.3°C 41.4°F5.2°C 33% 5.4 mph NNW8.7 kmh NNW 10.1 mph16.3 kmh 30.01 in1016.3 mb 0.00 in0.0 mm 0.00 in0.0 mm 0.00 in0.0 mm
04:01 AM 71.4°F21.9°C 41.5°F5.3°C 34% 5.6 mph NNW9.0 kmh NNW 7.6 mph12.2 kmh 30.02 in1016.6 mb 0.00 in0.0 mm 0.00 in0.0 mm 0.00 in0.0 mm
04:16 AM 70.7°F21.5°C 41.0°F5.0°C 34% 3.8 mph NNW6.1 kmh NNW 10.1 mph16.3 kmh 30.02 in1016.6 mb 0.00 in0.0 mm 0.00 in0.0 mm 0.00 in0.0 mm
04:31 AM 70.3°F21.3°C 39.9°F4.4°C 33% 4.0 mph N6.4 kmh N 12.5 mph20.1 kmh 30.02 in1016.6 mb 0.00 in0.0 mm 0.00 in0.0 mm 0.00 in0.0 mm
04:46 AM 70.9°F21.6°C 42.6°F5.9°C 36% 6.5 mph NNW10.5 kmh NNW 10.1 mph16.3 kmh 30.01 in1016.3 mb 0.00 in0.0 mm 0.00 in0.0 mm 0.00 in0.0 mm
05:01 AM 70.3°F21.3°C 39.0°F3.9°C 32% 5.6 mph NNW9.0 kmh NNW 10.1 mph16.3 kmh 30.02 in1016.6 mb 0.00 in0.0 mm 0.00 in0.0 mm 0.00 in0.0 mm
05:16 AM 69.8°F21.0°C 38.7°F3.7°C 32% 5.4 mph NNW8.7 kmh NNW 7.6 mph12.2 kmh 30.02 in1016.6 mb 0.00 in0.0 mm 0.00 in0.0 mm 0.00 in0.0 mm
05:31 AM 70.5°F21.4°C 40.1°F4.5°C 33% 4.7 mph N7.6 kmh N 10.1 mph16.3 kmh 30.01 in1016.3 mb 0.00 in0.0 mm 0.00 in0.0 mm 0.00 in0.0 mm
05:46 AM 69.6°F20.9°C 36.9°F2.7°C 30% 4.9 mph NNW7.9 kmh NNW 7.6 mph12.2 kmh 30.01 in1016.3 mb 0.00 in0.0 mm 0.00 in0.0 mm 0.00 in0.0 mm
06:01 AM 68.9°F20.5°C 39.4°F4.1°C 34% 6.0 mph NNW9.7 kmh NNW 7.6 mph12.2 kmh 30.02 in1016.6 mb 0.00 in0.0 mm 0.00 in0.0 mm 0.00 in0.0 mm
06:16 AM 68.4°F20.2°C 39.6°F4.2°C 35% 1.3 mph NW2.1 kmh NW 7.6 mph12.2 kmh 30.02 in1016.6 mb 0.00 in0.0 mm 0.00 in0.0 mm 0.00 in0.0 mm
06:31 AM 67.6°F19.8°C 48.9°F9.4°C 51% Calm Calm 4.9 mph7.9 kmh 30.03 in1016.9 mb 0.00 in0.0 mm 0.00 in0.0 mm 0.00 in0.0 mm
06:46 AM 66.9°F19.4°C 39.0°F3.9°C 36% Calm Calm 7.6 mph12.2 kmh 30.02 in1016.6 mb 0.00 in0.0 mm 0.00 in0.0 mm 0.00 in0.0 mm
07:01 AM 66.0°F18.9°C 57.6°F14.2°C 74% Calm Calm 4.9 mph7.9 kmh 30.03 in1016.9 mb 0.00 in0.0 mm 0.00 in0.0 mm 0.00 in0.0 mm
07:16 AM 64.4°F18.0°C 57.0°F13.9°C 77% 1.8 mph NNW2.9 kmh NNW 2.5 mph4.0 kmh 30.04 in1017.3 mb 0.00 in0.0 mm 0.00 in0.0 mm 0.00 in0.0 mm
07:31 AM 63.9°F17.7°C 51.1°F10.6°C 63% 1.8 mph N2.9 kmh N 2.5 mph4.0 kmh 30.04 in1017.3 mb 0.00 in0.0 mm 0.00 in0.0 mm 0.00 in0.0 mm
07:46 AM 65.5°F18.6°C 48.9°F9.4°C 55% 1.8 mph NE2.9 kmh NE 4.9 mph7.9 kmh 30.04 in1017.3 mb 0.00 in0.0 mm 0.00 in0.0 mm 0.00 in0.0 mm
08:01 AM 66.7°F19.3°C 59.7°F15.4°C 78% 1.3 mph E2.1 kmh E 7.6 mph12.2 kmh 30.05 in1017.6 mb 0.00 in0.0 mm 0.00 in0.0 mm 0.00 in0.0 mm
08:16 AM 67.1°F19.5°C 60.4°F15.8°C 79% 1.6 mph E2.6 kmh E 4.9 mph7.9 kmh 30.05 in1017.6 mb 0.00 in0.0 mm 0.00 in0.0 mm 0.00 in0.0 mm
08:31 AM 67.5°F19.7°C 59.2°F15.1°C 75% 0.7 mph SE1.1 kmh SE 4.9 mph7.9 kmh 30.06 in1017.9 mb 0.00 in0.0 mm 0.00 in0.0 mm 0.00 in0.0 mm
08:46 AM 68.5°F20.3°C 60.6°F15.9°C 76% 4.0 mph SSE6.4 kmh SSE 4.9 mph7.9 kmh 30.06 in1017.9 mb 0.00 in0.0 mm 0.00 in0.0 mm 0.00 in0.0 mm
09:01 AM 70.0°F21.1°C 60.6°F15.9°C 72% 2.9 mph ESE4.7 kmh ESE 7.6 mph12.2 kmh 30.06 in1017.9 mb 0.00 in0.0 mm 0.00 in0.0 mm 0.00 in0.0 mm
09:16 AM 71.1°F21.7°C 61.9°F16.6°C 73% 2.5 mph SSE4.0 kmh SSE 7.6 mph12.2 kmh 30.07 in1018.3 mb 0.00 in0.0 mm 0.00 in0.0 mm 0.00 in0.0 mm
09:31 AM 72.0°F22.2°C 62.1°F16.7°C 71% 0.9 mph E1.4 kmh E 4.9 mph7.9 kmh 30.07 in1018.3 mb 0.00 in0.0 mm 0.00 in0.0 mm 0.00 in0.0 mm
09:46 AM 72.7°F22.6°C 63.1°F17.3°C 72% 0.7 mph SE1.1 kmh SE 7.6 mph12.2 kmh 30.08 in1018.6 mb 0.00 in0.0 mm 0.00 in0.0 mm 0.00 in0.0 mm
10:01 AM 73.6°F23.1°C 61.9°F16.6°C 67% 1.8 mph SSW2.9 kmh SSW 7.6 mph12.2 kmh 30.07 in1018.3 mb 0.00 in0.0 mm 0.00 in0.0 mm 0.00 in0.0 mm
10:16 AM 74.8°F23.8°C 64.0°F17.8°C 69% 3.8 mph SE6.1 kmh SE 7.6 mph12.2 kmh 30.07 in1018.3 mb 0.00 in0.0 mm 0.00 in0.0 mm 0.00 in0.0 mm
10:31 AM 74.8°F23.8°C 65.7°F18.7°C 73% 3.4 mph SSE5.5 kmh SSE 10.1 mph16.3 kmh 30.09 in1019.0 mb 0.00 in0.0 mm 0.00 in0.0 mm 0.00 in0.0 mm
10:46 AM 74.3°F23.5°C 64.8°F18.2°C 72% 2.2 mph SSE3.5 kmh SSE 7.6 mph12.2 kmh 30.08 in1018.6 mb 0.00 in0.0 mm 0.00 in0.0 mm 0.00 in0.0 mm
11:01 AM 74.8°F23.8°C 61.9°F16.6°C 64% 3.1 mph S5.0 kmh S 7.6 mph12.2 kmh 30.08 in1018.6 mb 0.00 in0.0 mm 0.00 in0.0 mm 0.00 in0.0 mm
11:16 AM 76.3°F24.6°C 63.7°F17.6°C 65% 3.1 mph ESE5.0 kmh ESE 10.1 mph16.3 kmh 30.09 in1019.0 mb 0.00 in0.0 mm 0.00 in0.0 mm 0.00 in0.0 mm
11:31 AM 76.5°F24.7°C 63.0°F17.2°C 63% 4.0 mph SSE6.4 kmh SSE 7.6 mph12.2 kmh 30.08 in1018.6 mb 0.00 in0.0 mm 0.00 in0.0 mm 0.00 in0.0 mm
11:46 AM 77.0°F25.0°C 63.5°F17.5°C 63% 5.4 mph S8.7 kmh S 10.1 mph16.3 kmh 30.09 in1019.0 mb 0.00 in0.0 mm 0.00 in0.0 mm 0.00 in0.0 mm
12:01 PM 78.1°F25.6°C 63.1°F17.3°C 60% 4.0 mph S6.4 kmh S 7.6 mph12.2 kmh 30.08 in1018.6 mb 0.00 in0.0 mm 0.00 in0.0 mm 0.00 in0.0 mm
12:16 PM 78.8°F26.0°C 63.3°F17.4°C 59% 3.1 mph SSE5.0 kmh SSE 7.6 mph12.2 kmh 30.07 in1018.3 mb 0.00 in0.0 mm 0.00 in0.0 mm 0.00 in0.0 mm
12:31 PM 79.7°F26.5°C 63.1°F17.3°C 57% 1.6 mph SE2.6 kmh SE 10.1 mph16.3 kmh 30.06 in1017.9 mb 0.00 in0.0 mm 0.00 in0.0 mm 0.00 in0.0 mm
12:46 PM 80.6°F27.0°C 62.4°F16.9°C 54% 3.1 mph S5.0 kmh S 7.6 mph12.2 kmh 30.06 in1017.9 mb 0.00 in0.0 mm 0.00 in0.0 mm 0.00 in0.0 mm
01:01 PM 81.9°F27.7°C 64.6°F18.1°C 56% 6.5 mph SE10.5 kmh SE 10.1 mph16.3 kmh 30.06 in1017.9 mb 0.00 in0.0 mm 0.00 in0.0 mm 0.00 in0.0 mm
01:16 PM 82.0°F27.8°C 64.8°F18.2°C 56% 6.0 mph SE9.7 kmh SE 7.6 mph12.2 kmh 30.06 in1017.9 mb 0.00 in0.0 mm 0.00 in0.0 mm 0.00 in0.0 mm
01:31 PM 81.1°F27.3°C 61.9°F16.6°C 52% 6.0 mph SE9.7 kmh SE 12.5 mph20.1 kmh 30.06 in1017.9 mb 0.00 in0.0 mm 0.00 in0.0 mm 0.00 in0.0 mm
01:47 PM 81.0°F27.2°C 59.4°F15.2°C 48% 4.9 mph SSW7.9 kmh SSW 10.1 mph16.3 kmh 30.06 in1017.9 mb 0.00 in0.0 mm 0.00 in0.0 mm 0.00 in0.0 mm
02:02 PM 81.1°F27.3°C 59.0°F15.0°C 47% 2.5 mph SE4.0 kmh SE 10.1 mph16.3 kmh 30.06 in1017.9 mb 0.00 in0.0 mm 0.00 in0.0 mm 0.00 in0.0 mm
02:17 PM 81.1°F27.3°C 59.5°F15.3°C 48% 5.6 mph SE9.0 kmh SE 12.5 mph20.1 kmh 30.05 in1017.6 mb 0.00 in0.0 mm 0.00 in0.0 mm 0.00 in0.0 mm
02:32 PM 80.8°F27.1°C 58.6°F14.8°C 47% 1.6 mph SW2.6 kmh SW 10.1 mph16.3 kmh 30.05 in1017.6 mb 0.00 in0.0 mm 0.00 in0.0 mm 0.00 in0.0 mm
02:47 PM 80.8°F27.1°C 59.2°F15.1°C 48% 3.1 mph S5.0 kmh S 10.1 mph16.3 kmh 30.05 in1017.6 mb 0.00 in0.0 mm 0.00 in0.0 mm 0.00 in0.0 mm
03:02 PM 81.7°F27.6°C 60.1°F15.6°C 48% 1.6 mph S2.6 kmh S 10.1 mph16.3 kmh 30.05 in1017.6 mb 0.00 in0.0 mm 0.00 in0.0 mm 0.00 in0.0 mm
03:17 PM 81.3°F27.4°C 58.6°F14.8°C 46% 1.8 mph SSE2.9 kmh SSE 10.1 mph16.3 kmh 30.05 in1017.6 mb 0.00 in0.0 mm 0.00 in0.0 mm 0.00 in0.0 mm
03:32 PM 80.1°F26.7°C 57.4°F14.1°C 46% 3.1 mph S5.0 kmh S 12.5 mph20.1 kmh 30.05 in1017.6 mb 0.00 in0.0 mm 0.00 in0.0 mm 0.00 in0.0 mm
03:47 PM 79.7°F26.5°C 56.5°F13.6°C 45% 3.4 mph SSW5.5 kmh SSW 10.1 mph16.3 kmh 30.05 in1017.6 mb 0.00 in0.0 mm 0.00 in0.0 mm 0.00 in0.0 mm
04:02 PM 80.6°F27.0°C 56.7°F13.7°C 44% 2.9 mph SSE4.7 kmh SSE 7.6 mph12.2 kmh 30.04 in1017.3 mb 0.00 in0.0 mm 0.00 in0.0 mm 0.00 in0.0 mm
04:17 PM 81.5°F27.5°C 59.4°F15.2°C 47% 5.4 mph SSE8.7 kmh SSE 10.1 mph16.3 kmh 30.04 in1017.3 mb 0.00 in0.0 mm 0.00 in0.0 mm 0.00 in0.0 mm
04:32 PM 81.5°F27.5°C 59.4°F15.2°C 47% 2.5 mph SSW4.0 kmh SSW 7.6 mph12.2 kmh 30.03 in1016.9 mb 0.00 in0.0 mm 0.00 in0.0 mm 0.00 in0.0 mm
04:47 PM 81.1°F27.3°C 56.5°F13.6°C 43% 3.1 mph S5.0 kmh S 10.1 mph16.3 kmh 30.03 in1016.9 mb 0.00 in0.0 mm 0.00 in0.0 mm 0.00 in0.0 mm
05:02 PM 80.6°F27.0°C 57.4°F14.1°C 45% 2.2 mph SW3.5 kmh SW 7.6 mph12.2 kmh 30.03 in1016.9 mb 0.00 in0.0 mm 0.00 in0.0 mm 0.00 in0.0 mm
05:17 PM 79.9°F26.6°C 58.5°F14.7°C 48% 0.2 mph SW0.3 kmh SW 4.9 mph7.9 kmh 30.02 in1016.6 mb 0.00 in0.0 mm 0.00 in0.0 mm 0.00 in0.0 mm
05:32 PM 78.8°F26.0°C 58.1°F14.5°C 49% Calm Calm 4.9 mph7.9 kmh 30.02 in1016.6 mb 0.00 in0.0 mm 0.00 in0.0 mm 0.00 in0.0 mm
05:47 PM 78.1°F25.6°C 57.9°F14.4°C 50% 0.7 mph SW1.1 kmh SW 4.9 mph7.9 kmh 30.01 in1016.3 mb 0.00 in0.0 mm 0.00 in0.0 mm 0.00 in0.0 mm
06:02 PM 77.5°F25.3°C 59.5°F15.3°C 54% 0.9 mph SW1.4 kmh SW 4.9 mph7.9 kmh 30.01 in1016.3 mb 0.00 in0.0 mm 0.00 in0.0 mm 0.00 in0.0 mm
06:17 PM 76.3°F24.6°C 58.5°F14.7°C 54% 0.9 mph S1.4 kmh S 4.9 mph7.9 kmh 30.01 in1016.3 mb 0.00 in0.0 mm 0.00 in0.0 mm 0.00 in0.0 mm
06:32 PM 75.6°F24.2°C 57.7°F14.3°C 54% Calm Calm 2.5 mph4.0 kmh 30.02 in1016.6 mb 0.00 in0.0 mm 0.00 in0.0 mm 0.00 in0.0 mm
06:47 PM 75.4°F24.1°C 58.1°F14.5°C 55% Calm Calm 2.5 mph4.0 kmh 30.02 in1016.6 mb 0.00 in0.0 mm 0.00 in0.0 mm 0.00 in0.0 mm
07:02 PM 75.4°F24.1°C 58.1°F14.5°C 55% Calm Calm 2.5 mph4.0 kmh 30.02 in1016.6 mb 0.00 in0.0 mm 0.00 in0.0 mm 0.00 in0.0 mm
07:17 PM 74.8°F23.8°C 58.6°F14.8°C 57% 0.7 mph SSE1.1 kmh SSE 2.5 mph4.0 kmh 30.02 in1016.6 mb 0.00 in0.0 mm 0.00 in0.0 mm 0.00 in0.0 mm
07:32 PM 73.9°F23.3°C 59.7°F15.4°C 61% 1.6 mph NW2.6 kmh NW 2.5 mph4.0 kmh 30.03 in1016.9 mb 0.00 in0.0 mm 0.00 in0.0 mm 0.00 in0.0 mm
07:47 PM 73.8°F23.2°C 59.0°F15.0°C 60% Calm Calm 2.5 mph4.0 kmh 30.03 in1016.9 mb 0.00 in0.0 mm 0.00 in0.0 mm 0.00 in0.0 mm
08:02 PM 74.1°F23.4°C 55.4°F13.0°C 52% 1.6 mph NNW2.6 kmh NNW 4.9 mph7.9 kmh 30.03 in1016.9 mb 0.00 in0.0 mm 0.00 in0.0 mm 0.00 in0.0 mm
08:17 PM 74.3°F23.5°C 55.0°F12.8°C 51% 5.6 mph NNW9.0 kmh NNW 7.6 mph12.2 kmh 30.03 in1016.9 mb 0.00 in0.0 mm 0.00 in0.0 mm 0.00 in0.0 mm
08:32 PM 74.5°F23.6°C 51.8°F11.0°C 45% 2.5 mph NNW4.0 kmh NNW 7.6 mph12.2 kmh 30.04 in1017.3 mb 0.00 in0.0 mm 0.00 in0.0 mm 0.00 in0.0 mm
08:47 PM 74.5°F23.6°C 50.5°F10.3°C 43% 6.0 mph NNW9.7 kmh NNW 10.1 mph16.3 kmh 30.04 in1017.3 mb 0.00 in0.0 mm 0.00 in0.0 mm 0.00 in0.0 mm
09:02 PM 74.3°F23.5°C 50.4°F10.2°C 43% 3.8 mph NNW6.1 kmh NNW 7.6 mph12.2 kmh 30.04 in1017.3 mb 0.00 in0.0 mm 0.00 in0.0 mm 0.00 in0.0 mm
09:17 PM 73.9°F23.3°C 50.0°F10.0°C 43% 5.4 mph NNW8.7 kmh NNW 10.1 mph16.3 kmh 30.05 in1017.6 mb 0.00 in0.0 mm 0.00 in0.0 mm 0.00 in0.0 mm
09:32 PM 73.4°F23.0°C 47.7°F8.7°C 40% 4.5 mph NNW7.2 kmh NNW 10.1 mph16.3 kmh 30.05 in1017.6 mb 0.00 in0.0 mm 0.00 in0.0 mm 0.00 in0.0 mm
09:47 PM 73.6°F23.1°C 49.1°F9.5°C 42% 8.7 mph NNW14.0 kmh NNW 10.1 mph16.3 kmh 30.06 in1017.9 mb 0.00 in0.0 mm 0.00 in0.0 mm 0.00 in0.0 mm
10:02 PM 73.8°F23.2°C 49.3°F9.6°C 42% 4.5 mph NNW7.2 kmh NNW 10.1 mph16.3 kmh 30.06 in1017.9 mb 0.00 in0.0 mm 0.00 in0.0 mm 0.00 in0.0 mm
10:17 PM 73.4°F23.0°C 45.5°F7.5°C 37% 4.0 mph NNW6.4 kmh NNW 10.1 mph16.3 kmh 30.07 in1018.3 mb 0.00 in0.0 mm 0.00 in0.0 mm 0.00 in0.0 mm
10:32 PM 73.4°F23.0°C 49.5°F9.7°C 43% 4.7 mph NNW7.6 kmh NNW 10.1 mph16.3 kmh 30.07 in1018.3 mb 0.00 in0.0 mm 0.00 in0.0 mm 0.00 in0.0 mm
10:47 PM 73.2°F22.9°C 50.0°F10.0°C 44% 4.5 mph NNW7.2 kmh NNW 7.6 mph12.2 kmh 30.07 in1018.3 mb 0.00 in0.0 mm 0.00 in0.0 mm 0.00 in0.0 mm
11:02 PM 72.9°F22.7°C 49.1°F9.5°C 43% 1.8 mph NNW2.9 kmh NNW 4.9 mph7.9 kmh 30.08 in1018.6 mb 0.00 in0.0 mm 0.00 in0.0 mm 0.00 in0.0 mm
11:17 PM 73.0°F22.8°C 48.0°F8.9°C 41% 0.9 mph NW1.4 kmh NW 4.9 mph7.9 kmh 30.07 in1018.3 mb 0.00 in0.0 mm 0.00 in0.0 mm 0.00 in0.0 mm
11:32 PM 73.2°F22.9°C 47.5°F8.6°C 40% 0.2 mph WNW0.3 kmh WNW 10.1 mph16.3 kmh 30.08 in1018.6 mb 0.00 in0.0 mm 0.00 in0.0 mm 0.00 in0.0 mm
11:47 PM 73.4°F23.0°C 46.9°F8.3°C 39% 0.2 mph NW0.3 kmh NW 7.6 mph12.2 kmh 30.07 in1018.3 mb 0.00 in0.0 mm 0.00 in0.0 mm 0.00 in0.0 mm